createdAt,value
2023-06-25T00:01:07.859Z,99.90
2023-06-25T00:03:34.764Z,99.90
2023-06-25T00:06:01.639Z,99.90
2023-06-25T00:08:28.480Z,99.90
2023-06-25T00:10:55.336Z,99.90
2023-06-25T00:13:22.343Z,99.90
2023-06-25T00:15:49.251Z,99.90
2023-06-25T00:18:16.117Z,99.90
2023-06-25T00:20:43.509Z,99.90
2023-06-25T00:23:10.344Z,99.90
2023-06-25T00:25:37.182Z,99.90
2023-06-25T00:28:09.453Z,99.90
2023-06-25T00:30:38.167Z,99.90
2023-06-25T00:33:05.704Z,99.90
2023-06-25T00:36:00.821Z,99.90
2023-06-25T00:38:27.760Z,99.90
2023-06-25T00:40:54.631Z,99.90
2023-06-25T00:43:22.279Z,99.90
2023-06-25T00:45:49.358Z,99.90
2023-06-25T00:48:16.273Z,99.90
2023-06-25T00:50:43.803Z,99.90
2023-06-25T00:53:10.737Z,99.90
2023-06-25T00:55:38.308Z,99.90
2023-06-25T00:58:06.161Z,99.90
2023-06-25T01:00:35.289Z,99.90
2023-06-25T01:03:14.102Z,99.90
2023-06-25T01:06:03.345Z,99.90
2023-06-25T01:08:39.840Z,99.90
2023-06-25T01:11:07.152Z,99.90
2023-06-25T01:13:34.002Z,99.90
2023-06-25T01:16:00.877Z,99.90
2023-06-25T01:18:27.721Z,99.90
2023-06-25T01:20:57.642Z,99.90
2023-06-25T01:23:25.141Z,99.90
2023-06-25T01:25:52.451Z,99.90
2023-06-25T01:28:22.346Z,99.90
2023-06-25T01:30:53.493Z,99.90
2023-06-25T01:33:22.109Z,99.90
2023-06-25T01:35:49.255Z,99.90
2023-06-25T01:38:16.181Z,99.90
2023-06-25T01:40:43.298Z,99.90
2023-06-25T01:43:10.180Z,99.90
2023-06-25T01:45:37.408Z,99.90
2023-06-25T01:48:04.745Z,99.90
2023-06-25T01:50:31.734Z,99.90
2023-06-25T01:52:58.575Z,99.90
2023-06-25T01:55:25.368Z,99.90
2023-06-25T01:57:52.820Z,99.90
2023-06-25T02:00:19.692Z,99.90
2023-06-25T02:02:46.659Z,99.90
2023-06-25T02:05:13.626Z,99.90
2023-06-25T02:07:40.472Z,99.90
2023-06-25T02:10:07.557Z,99.90
2023-06-25T02:12:34.485Z,99.90
2023-06-25T02:15:01.340Z,99.90
2023-06-25T02:17:28.168Z,99.90
2023-06-25T02:19:55.133Z,99.90
2023-06-25T02:22:21.935Z,99.90
2023-06-25T02:24:48.716Z,99.90
2023-06-25T02:27:15.821Z,99.90
2023-06-25T02:29:42.629Z,99.90
2023-06-25T02:32:09.590Z,99.90
2023-06-25T02:34:36.414Z,99.90
2023-06-25T02:37:16.050Z,99.90
2023-06-25T02:39:43.171Z,99.90
2023-06-25T02:42:10.084Z,99.90
2023-06-25T02:44:37.241Z,99.90
2023-06-25T02:47:04.577Z,99.90
2023-06-25T02:49:31.672Z,99.90
2023-06-25T02:51:58.522Z,99.90
2023-06-25T02:54:25.351Z,99.90
2023-06-25T02:56:53.712Z,99.90
2023-06-25T02:59:20.846Z,99.90
2023-06-25T03:01:48.480Z,99.90
2023-06-25T03:04:15.364Z,99.90
2023-06-25T03:06:43.196Z,99.90
2023-06-25T03:09:10.463Z,99.90
2023-06-25T03:11:37.366Z,99.90
2023-06-25T03:14:04.196Z,99.90
2023-06-25T03:16:31.041Z,99.90
2023-06-25T03:18:58.719Z,99.90
2023-06-25T03:21:25.588Z,99.90
2023-06-25T03:23:52.434Z,99.90
2023-06-25T03:26:19.410Z,99.90
2023-06-25T03:28:46.214Z,99.90
2023-06-25T03:31:13.056Z,99.90
2023-06-25T03:33:39.876Z,99.90
2023-06-25T03:36:06.725Z,99.90
2023-06-25T03:38:33.567Z,99.90
2023-06-25T03:41:00.465Z,99.90
2023-06-25T03:43:27.306Z,99.90
2023-06-25T03:45:54.166Z,99.90
2023-06-25T03:48:21.640Z,99.90
2023-06-25T03:50:48.595Z,99.90
2023-06-25T03:53:17.161Z,99.90
2023-06-25T03:55:44.401Z,99.90
2023-06-25T03:58:11.239Z,99.90
2023-06-25T04:00:38.068Z,99.90
2023-06-25T04:03:04.966Z,99.90
2023-06-25T04:05:31.803Z,99.90
2023-06-25T04:07:58.592Z,99.90
2023-06-25T04:10:26.196Z,99.90
2023-06-25T04:12:52.968Z,99.90
2023-06-25T04:15:19.756Z,99.90
2023-06-25T04:17:48.090Z,99.90
2023-06-25T04:20:15.131Z,99.90
2023-06-25T04:22:41.997Z,99.90
2023-06-25T04:25:08.957Z,99.90
2023-06-25T04:27:35.780Z,99.90
2023-06-25T04:30:02.627Z,99.90
2023-06-25T04:32:29.527Z,99.90
2023-06-25T04:34:56.353Z,99.90
2023-06-25T04:37:23.152Z,99.90
2023-06-25T04:39:50.029Z,99.90
2023-06-25T04:42:16.928Z,99.90
2023-06-25T04:44:43.974Z,99.90
2023-06-25T04:47:10.801Z,99.90
2023-06-25T04:49:38.033Z,99.90
2023-06-25T04:52:05.270Z,99.90
2023-06-25T04:54:32.174Z,99.90
2023-06-25T04:56:59.009Z,99.90
2023-06-25T04:59:25.806Z,99.90
2023-06-25T05:01:52.724Z,99.90
2023-06-25T05:04:19.583Z,99.90
2023-06-25T05:06:46.426Z,99.90
2023-06-25T05:09:13.287Z,99.90
2023-06-25T05:11:40.075Z,99.90
2023-06-25T05:14:06.842Z,99.90
2023-06-25T05:16:33.641Z,99.90
2023-06-25T05:19:00.511Z,99.90
2023-06-25T05:21:27.310Z,99.90
2023-06-25T05:24:02.545Z,99.90
2023-06-25T05:26:29.513Z,99.90
2023-06-25T05:28:57.361Z,99.90
2023-06-25T05:31:24.544Z,99.90
2023-06-25T05:33:51.335Z,99.90
2023-06-25T05:36:18.870Z,99.90
2023-06-25T05:38:45.718Z,99.90
2023-06-25T05:41:12.532Z,99.90
2023-06-25T05:43:39.865Z,99.90
2023-06-25T05:46:06.946Z,99.90
2023-06-25T05:48:33.746Z,99.90
2023-06-25T05:51:00.607Z,99.90
2023-06-25T05:53:27.473Z,99.90
2023-06-25T05:55:54.848Z,99.90
2023-06-25T05:58:21.645Z,99.90
2023-06-25T06:00:48.449Z,99.90
2023-06-25T06:03:15.372Z,99.90
2023-06-25T06:05:42.287Z,99.90
2023-06-25T06:08:09.236Z,99.90
2023-06-25T06:10:36.068Z,99.90
2023-06-25T06:13:02.977Z,99.90
2023-06-25T06:15:29.775Z,99.90
2023-06-25T06:17:56.618Z,99.90
2023-06-25T06:20:23.417Z,99.90
2023-06-25T06:22:50.252Z,99.90
2023-06-25T06:25:17.111Z,99.90
2023-06-25T06:27:43.972Z,99.90
2023-06-25T06:30:11.457Z,99.90
2023-06-25T06:32:38.337Z,99.90
2023-06-25T06:35:05.423Z,99.90
2023-06-25T06:37:32.227Z,99.90
2023-06-25T06:39:59.557Z,99.90
2023-06-25T06:42:26.342Z,99.90
2023-06-25T06:44:53.181Z,99.90
2023-06-25T06:47:19.998Z,99.90
2023-06-25T06:49:47.516Z,99.90
2023-06-25T06:52:16.416Z,99.90
2023-06-25T06:54:43.285Z,99.90
2023-06-25T06:57:10.191Z,99.90
2023-06-25T06:59:37.013Z,99.90
2023-06-25T07:02:04.293Z,99.90
2023-06-25T07:04:31.252Z,99.90
2023-06-25T07:06:58.111Z,99.90
2023-06-25T07:09:26.448Z,99.90
2023-06-25T07:11:53.937Z,99.90
2023-06-25T07:14:20.774Z,99.90
2023-06-25T07:16:47.699Z,99.90
2023-06-25T07:19:14.717Z,99.90
2023-06-25T07:21:41.710Z,99.90
2023-06-25T07:24:08.591Z,99.90
2023-06-25T07:26:35.424Z,99.90
2023-06-25T07:29:02.266Z,99.90
2023-06-25T07:31:29.154Z,99.90
2023-06-25T07:33:57.186Z,99.90
2023-06-25T07:36:24.068Z,99.90
2023-06-25T07:38:50.934Z,99.90
2023-06-25T07:41:18.021Z,99.90
2023-06-25T07:43:44.854Z,99.90
2023-06-25T07:46:11.707Z,99.90
2023-06-25T07:48:41.424Z,99.90
2023-06-25T07:51:08.226Z,99.90
2023-06-25T07:53:35.805Z,99.90
2023-06-25T07:56:03.827Z,99.90
2023-06-25T07:58:31.579Z,99.90
2023-06-25T08:00:58.444Z,99.90
2023-06-25T08:03:25.516Z,99.90
2023-06-25T08:05:53.784Z,99.90
2023-06-25T08:08:20.656Z,99.90
2023-06-25T08:10:52.407Z,99.90
2023-06-25T08:13:20.441Z,99.90
2023-06-25T08:15:47.265Z,99.90
2023-06-25T08:18:14.156Z,99.90
2023-06-25T08:20:41.555Z,99.90
2023-06-25T08:23:08.632Z,99.90
2023-06-25T08:25:35.933Z,99.90
2023-06-25T08:28:02.857Z,99.90
2023-06-25T08:30:29.720Z,99.90
2023-06-25T08:32:56.665Z,99.90
2023-06-25T08:35:23.578Z,99.90
2023-06-25T08:37:50.376Z,99.90
2023-06-25T08:40:19.851Z,99.90
2023-06-25T08:42:47.943Z,99.90
2023-06-25T08:45:16.287Z,99.90
2023-06-25T08:47:46.839Z,99.90
2023-06-25T08:50:13.717Z,99.90
2023-06-25T08:52:40.911Z,99.90
2023-06-25T08:55:12.293Z,99.90
2023-06-25T08:57:39.293Z,99.90
2023-06-25T09:00:08.654Z,99.90
2023-06-25T09:02:36.268Z,99.90
2023-06-25T09:05:08.872Z,99.90
2023-06-25T09:07:38.631Z,99.90
2023-06-25T09:10:09.126Z,99.90
2023-06-25T09:12:36.034Z,99.90
2023-06-25T09:15:03.419Z,99.90
2023-06-25T09:17:32.275Z,99.90
2023-06-25T09:20:09.539Z,99.90
2023-06-25T09:22:50.017Z,99.90
2023-06-25T09:25:17.112Z,99.90
2023-06-25T09:27:44.641Z,99.90
2023-06-25T09:30:12.817Z,99.90
2023-06-25T09:32:50.987Z,99.90
2023-06-25T09:35:24.640Z,99.90
2023-06-25T09:37:52.367Z,99.90
2023-06-25T09:40:20.262Z,99.90
2023-06-25T09:42:49.713Z,99.90
2023-06-25T09:45:17.504Z,99.90
2023-06-25T09:47:47.318Z,99.90
2023-06-25T09:50:37.067Z,99.90
2023-06-25T09:53:07.643Z,99.90
2023-06-25T09:55:37.749Z,99.90
2023-06-25T09:58:05.704Z,99.90
2023-06-25T10:00:34.603Z,99.90
2023-06-25T10:03:04.347Z,99.90
2023-06-25T10:05:32.845Z,99.90
2023-06-25T10:08:00.141Z,99.90
2023-06-25T10:10:30.532Z,99.90
2023-06-25T10:12:57.587Z,99.90
2023-06-25T10:15:32.547Z,99.90
2023-06-25T10:18:08.697Z,99.90
2023-06-25T10:20:38.847Z,99.90
2023-06-25T10:23:10.817Z,99.90
2023-06-25T10:25:40.533Z,99.90
2023-06-25T10:28:13.623Z,99.90
2023-06-25T10:30:48.165Z,99.90
2023-06-25T10:33:19.047Z,99.90
2023-06-25T10:35:50.649Z,99.90
2023-06-25T10:38:17.702Z,99.90
2023-06-25T10:40:44.533Z,99.90
2023-06-25T10:43:20.505Z,99.90
2023-06-25T10:45:50.986Z,99.90
2023-06-25T10:48:18.351Z,99.90
2023-06-25T10:50:45.910Z,99.90
2023-06-25T10:53:15.174Z,99.90
2023-06-25T10:55:47.253Z,99.90
2023-06-25T10:58:18.641Z,99.90
2023-06-25T11:00:46.654Z,99.50
2023-06-25T11:03:13.837Z,99.80
2023-06-25T11:05:44.536Z,99.90
2023-06-25T11:08:14.708Z,99.40
2023-06-25T11:10:42.628Z,99.90
2023-06-25T11:13:13.895Z,99.70
2023-06-25T11:15:43.966Z,99.90
2023-06-25T11:18:11.546Z,99.80
2023-06-25T11:20:43.674Z,99.60
2023-06-25T11:23:13.474Z,99.10
2023-06-25T11:25:41.531Z,99.10
2023-06-25T11:28:10.976Z,99.00
2023-06-25T11:30:38.455Z,98.90
2023-06-25T11:33:12.463Z,99.20
2023-06-25T11:35:40.193Z,99.20
2023-06-25T11:38:07.588Z,98.60
2023-06-25T11:40:36.902Z,98.10
2023-06-25T11:43:04.377Z,98.60
2023-06-25T11:45:43.334Z,98.50
2023-06-25T11:48:15.087Z,98.30
2023-06-25T11:50:44.020Z,97.80
2023-06-25T11:53:11.213Z,98.10
2023-06-25T11:55:39.539Z,99.30
2023-06-25T11:58:06.895Z,99.90
2023-06-25T12:00:33.728Z,99.30
2023-06-25T12:03:00.588Z,98.10
2023-06-25T12:05:27.503Z,98.30
2023-06-25T12:07:54.275Z,98.80
2023-06-25T12:10:21.348Z,98.30
2023-06-25T12:12:48.912Z,98.00
2023-06-25T12:15:15.836Z,97.60
2023-06-25T12:17:43.596Z,97.50
2023-06-25T12:20:10.643Z,97.00
2023-06-25T12:22:37.466Z,97.30
2023-06-25T12:25:05.344Z,96.70
2023-06-25T12:27:32.131Z,96.80
2023-06-25T12:29:58.911Z,96.50
2023-06-25T12:32:25.745Z,96.30
2023-06-25T12:34:53.198Z,95.70
2023-06-25T12:37:20.042Z,96.00
2023-06-25T12:39:46.868Z,96.70
2023-06-25T12:42:13.692Z,96.20
2023-06-25T12:44:40.695Z,96.50
2023-06-25T12:47:07.673Z,96.00
2023-06-25T12:49:34.484Z,96.10
2023-06-25T12:52:02.469Z,95.60
2023-06-25T12:54:29.471Z,95.50
2023-06-25T12:56:56.455Z,95.20
2023-06-25T12:59:23.452Z,93.70
2023-06-25T13:01:57.040Z,94.10
2023-06-25T13:04:24.927Z,94.00
2023-06-25T13:06:51.915Z,94.30
2023-06-25T13:09:18.781Z,94.20
2023-06-25T13:11:45.618Z,94.70
2023-06-25T13:14:12.547Z,93.80
2023-06-25T13:16:39.362Z,93.20
2023-06-25T13:19:06.205Z,93.30
2023-06-25T13:21:33.033Z,94.00
2023-06-25T13:23:59.940Z,93.90
2023-06-25T13:26:27.601Z,93.30
2023-06-25T13:28:55.881Z,93.50
2023-06-25T13:31:23.058Z,92.90
2023-06-25T13:33:50.139Z,92.60
2023-06-25T13:36:17.083Z,92.80
2023-06-25T13:38:43.890Z,92.10
2023-06-25T13:41:10.696Z,92.70
2023-06-25T13:43:37.576Z,93.00
2023-06-25T13:46:04.665Z,92.10
2023-06-25T13:48:31.575Z,92.30
2023-06-25T13:51:01.796Z,92.10
2023-06-25T13:53:29.212Z,92.20
2023-06-25T13:55:58.011Z,92.80
2023-06-25T13:58:25.207Z,92.60
2023-06-25T14:00:53.753Z,91.60
2023-06-25T14:03:20.852Z,91.60
2023-06-25T14:05:48.476Z,91.10
2023-06-25T14:08:15.457Z,90.80
2023-06-25T14:10:42.500Z,91.20
2023-06-25T14:13:11.745Z,91.00
2023-06-25T14:15:42.472Z,90.80
2023-06-25T14:18:10.475Z,91.10
2023-06-25T14:20:37.634Z,91.60
2023-06-25T14:23:04.469Z,91.00
2023-06-25T14:25:31.263Z,91.40
2023-06-25T14:27:58.929Z,90.90
2023-06-25T14:30:25.795Z,91.10
2023-06-25T14:32:52.666Z,91.50
2023-06-25T14:35:19.663Z,91.20
2023-06-25T14:37:47.420Z,90.20
2023-06-25T14:40:14.378Z,90.20
2023-06-25T14:42:41.395Z,90.70
2023-06-25T14:45:08.839Z,90.20
2023-06-25T14:47:36.611Z,90.70
2023-06-25T14:50:04.683Z,90.90
2023-06-25T14:52:31.629Z,91.40
2023-06-25T14:54:58.629Z,91.40
2023-06-25T14:57:25.459Z,91.50
2023-06-25T14:59:52.920Z,92.20
2023-06-25T15:02:19.903Z,92.30
2023-06-25T15:04:49.506Z,92.70
2023-06-25T15:07:18.648Z,92.90
2023-06-25T15:09:45.811Z,92.80
2023-06-25T15:12:13.007Z,93.70
2023-06-25T15:14:39.932Z,93.30
2023-06-25T15:17:06.780Z,91.60
2023-06-25T15:19:34.239Z,92.30
2023-06-25T15:22:01.108Z,92.30
2023-06-25T15:24:27.944Z,92.20
2023-06-25T15:26:54.766Z,92.40
2023-06-25T15:29:22.898Z,91.60
2023-06-25T15:31:49.897Z,92.00
2023-06-25T15:34:16.758Z,91.70
2023-06-25T15:36:46.218Z,92.10
2023-06-25T15:39:13.175Z,91.60
2023-06-25T15:41:40.009Z,91.60
2023-06-25T15:44:07.363Z,91.00
2023-06-25T15:46:34.176Z,89.30
2023-06-25T15:49:01.540Z,90.30
2023-06-25T15:51:28.477Z,91.40
2023-06-25T15:53:55.417Z,91.00
2023-06-25T15:56:22.924Z,91.70
2023-06-25T15:58:51.255Z,92.20
2023-06-25T16:01:19.709Z,91.70
2023-06-25T16:03:46.747Z,91.90
2023-06-25T16:06:13.704Z,91.70
2023-06-25T16:08:40.594Z,91.20
2023-06-25T16:11:07.431Z,91.90
2023-06-25T16:13:34.243Z,91.40
2023-06-25T16:16:01.025Z,91.20
2023-06-25T16:18:27.834Z,90.50
2023-06-25T16:20:54.636Z,91.10
2023-06-25T16:23:21.745Z,91.00
2023-06-25T16:25:48.606Z,90.40
2023-06-25T16:28:15.544Z,90.10
2023-06-25T16:30:42.368Z,89.50
2023-06-25T16:33:09.365Z,89.90
2023-06-25T16:35:37.417Z,90.70
2023-06-25T16:38:06.335Z,91.10
2023-06-25T16:40:33.173Z,90.90
2023-06-25T16:43:00.006Z,90.90
2023-06-25T16:45:26.845Z,91.60
2023-06-25T16:47:53.895Z,91.70
2023-06-25T16:50:20.913Z,92.20
2023-06-25T16:52:47.727Z,92.10
2023-06-25T16:55:14.625Z,91.60
2023-06-25T16:57:41.401Z,92.00
2023-06-25T17:00:09.121Z,91.70
2023-06-25T17:02:36.113Z,92.00
2023-06-25T17:05:03.102Z,92.10
2023-06-25T17:07:30.067Z,92.80
2023-06-25T17:09:57.038Z,92.90
2023-06-25T17:12:23.906Z,93.80
2023-06-25T17:14:50.723Z,94.40
2023-06-25T17:17:17.566Z,95.60
2023-06-25T17:19:44.411Z,96.10
2023-06-25T17:22:12.578Z,97.10
2023-06-25T17:24:39.457Z,97.50
2023-06-25T17:27:06.290Z,97.50
2023-06-25T17:29:33.115Z,98.10
2023-06-25T17:32:00.047Z,98.60
2023-06-25T17:34:26.852Z,98.90
2023-06-25T17:36:53.638Z,98.70
2023-06-25T17:39:20.602Z,98.40
2023-06-25T17:41:47.486Z,98.60
2023-06-25T17:44:14.306Z,98.10
2023-06-25T17:46:41.179Z,99.50
2023-06-25T17:49:08.196Z,99.70
2023-06-25T17:51:35.062Z,99.90
2023-06-25T17:54:01.910Z,99.90
2023-06-25T17:56:28.682Z,99.90
2023-06-25T17:58:55.520Z,99.90
2023-06-25T18:01:22.442Z,99.90
2023-06-25T18:03:49.520Z,99.90
2023-06-25T18:06:16.400Z,99.90
2023-06-25T18:08:43.184Z,99.90
2023-06-25T18:11:24.004Z,99.90
2023-06-25T18:13:51.401Z,99.90
2023-06-25T18:16:18.782Z,99.90
2023-06-25T18:18:47.722Z,99.90
2023-06-25T18:21:15.169Z,99.90
2023-06-25T18:23:42.673Z,99.90
2023-06-25T18:26:10.909Z,99.90
2023-06-25T18:28:37.992Z,99.90
2023-06-25T18:31:06.978Z,99.90
2023-06-25T18:33:34.139Z,99.90
2023-06-25T18:36:01.122Z,99.90
2023-06-25T18:38:29.143Z,99.90
2023-06-25T18:40:57.768Z,99.90
2023-06-25T18:43:24.577Z,99.90
2023-06-25T18:45:51.456Z,99.90
2023-06-25T18:48:18.352Z,99.90
2023-06-25T18:50:46.023Z,99.90
2023-06-25T18:53:16.347Z,99.90
2023-06-25T18:55:43.326Z,99.90
2023-06-25T18:58:13.744Z,99.90
2023-06-25T19:00:40.850Z,99.90
2023-06-25T19:03:09.114Z,99.90
2023-06-25T19:05:37.158Z,99.90
2023-06-25T19:08:04.678Z,99.90
2023-06-25T19:10:31.632Z,99.90
2023-06-25T19:13:00.475Z,99.90
2023-06-25T19:15:27.358Z,99.90
2023-06-25T19:17:54.267Z,99.90
2023-06-25T19:20:21.187Z,99.90
2023-06-25T19:23:09.053Z,99.90
2023-06-25T19:25:34.949Z,99.90
2023-06-25T19:28:01.738Z,99.90
2023-06-25T19:30:28.584Z,99.90
2023-06-25T19:32:55.486Z,99.90
2023-06-25T19:35:41.191Z,99.90
2023-06-25T19:38:07.993Z,99.90
2023-06-25T19:40:35.135Z,99.90
2023-06-25T19:43:03.929Z,99.90
2023-06-25T19:45:31.018Z,99.90
2023-06-25T19:47:59.437Z,99.90
2023-06-25T19:50:26.910Z,99.90
2023-06-25T19:52:53.768Z,99.90
2023-06-25T19:55:20.935Z,99.90
2023-06-25T19:57:47.933Z,99.90
2023-06-25T20:00:14.914Z,99.90
2023-06-25T20:02:41.863Z,99.90
2023-06-25T20:05:09.048Z,99.90
2023-06-25T20:07:36.061Z,99.90
2023-06-25T20:10:02.981Z,99.90
2023-06-25T20:12:30.305Z,99.90
2023-06-25T20:14:59.567Z,99.90
2023-06-25T20:17:28.025Z,99.90
2023-06-25T20:19:57.423Z,99.90
2023-06-25T20:22:24.215Z,99.90
2023-06-25T20:24:51.011Z,99.90
2023-06-25T20:27:18.050Z,99.90
2023-06-25T20:29:44.869Z,99.90
2023-06-25T20:32:11.761Z,99.90
2023-06-25T20:34:38.623Z,99.90
2023-06-25T20:37:05.624Z,99.90
2023-06-25T20:39:32.414Z,99.90
2023-06-25T20:41:59.224Z,99.90
2023-06-25T20:44:34.520Z,99.90
2023-06-25T20:47:02.057Z,99.90
2023-06-25T20:49:30.697Z,99.90
2023-06-25T20:51:58.624Z,99.90
2023-06-25T20:54:27.749Z,99.90
2023-06-25T20:56:57.487Z,99.90
2023-06-25T20:59:25.107Z,99.90
2023-06-25T21:01:53.172Z,99.90
2023-06-25T21:04:20.219Z,99.90
2023-06-25T21:06:47.031Z,99.90
2023-06-25T21:09:14.116Z,99.90
2023-06-25T21:11:40.977Z,99.90
2023-06-25T21:14:07.841Z,99.90
2023-06-25T21:16:34.765Z,99.90
2023-06-25T21:19:01.600Z,99.90
2023-06-25T21:21:28.822Z,99.90
2023-06-25T21:23:55.928Z,99.90
2023-06-25T21:26:23.852Z,99.90
2023-06-25T21:28:51.020Z,99.90
2023-06-25T21:31:18.081Z,99.90
2023-06-25T21:33:45.002Z,99.90
2023-06-25T21:36:11.800Z,99.90
2023-06-25T21:38:38.775Z,99.90
2023-06-25T21:41:05.649Z,99.90
2023-06-25T21:43:32.645Z,99.90
2023-06-25T21:45:59.477Z,99.90
2023-06-25T21:48:26.287Z,99.90
2023-06-25T21:50:58.516Z,99.90
2023-06-25T21:53:28.607Z,99.90
2023-06-25T21:55:55.447Z,99.90
2023-06-25T21:58:24.684Z,99.90
2023-06-25T22:00:51.852Z,99.90
2023-06-25T22:03:18.962Z,99.90
2023-06-25T22:05:46.497Z,99.90
2023-06-25T22:08:13.482Z,99.90
2023-06-25T22:10:40.523Z,99.90
2023-06-25T22:13:07.461Z,99.90
2023-06-25T22:15:34.571Z,99.90
2023-06-25T22:18:01.611Z,99.90
2023-06-25T22:20:28.907Z,99.90
2023-06-25T22:22:55.853Z,99.90
2023-06-25T22:25:22.896Z,99.90
2023-06-25T22:27:52.785Z,99.90
2023-06-25T22:30:20.810Z,99.90
2023-06-25T22:32:48.586Z,99.90
2023-06-25T22:35:15.786Z,99.90
2023-06-25T22:37:42.844Z,99.90
2023-06-25T22:40:10.705Z,99.90
2023-06-25T22:42:37.774Z,99.90
2023-06-25T22:45:06.465Z,99.90
2023-06-25T22:47:33.713Z,99.90
2023-06-25T22:50:00.670Z,99.90
2023-06-25T22:52:27.547Z,99.90
2023-06-25T22:54:54.891Z,99.90
2023-06-25T22:57:22.043Z,99.90
2023-06-25T22:59:49.104Z,99.90
2023-06-25T23:02:15.973Z,99.90
2023-06-25T23:04:45.877Z,99.90
2023-06-25T23:07:14.343Z,99.90
2023-06-25T23:09:41.136Z,99.90
2023-06-25T23:12:08.122Z,99.90
2023-06-25T23:14:36.442Z,99.90
2023-06-25T23:17:03.463Z,99.90
2023-06-25T23:19:34.448Z,99.90
2023-06-25T23:22:03.459Z,99.90
2023-06-25T23:24:40.548Z,99.90
2023-06-25T23:27:08.325Z,99.90
2023-06-25T23:29:38.308Z,99.90
2023-06-25T23:32:08.964Z,99.90
2023-06-25T23:34:36.392Z,99.90
2023-06-25T23:37:04.365Z,99.90
2023-06-25T23:39:34.296Z,99.90
2023-06-25T23:42:01.500Z,99.90
2023-06-25T23:44:28.287Z,99.90
2023-06-25T23:46:55.108Z,99.90
2023-06-25T23:49:22.166Z,99.90
2023-06-25T23:51:50.086Z,99.90
2023-06-25T23:54:16.916Z,99.90
2023-06-25T23:56:43.754Z,99.90
2023-06-25T23:59:10.663Z,99.90
